Řízení letového provozu České republiky
Letiste: LKCV Aktualizace: 02.07.2016 01:06:04  UTC
 METAR LKCV 02.07. 01:00 ...
METAR LKCV 020100Z 11003KT CAVOK 18/15 Q1016 NOSIG=
 TAF LKCV 01.07. 17:00 ...
TAF LKCV 011700Z 0118/0218 VRB02KT CAVOK      BECMG 0212/0214 21008KT      PROB40 TEMPO 0213/0218 27014G26KT 7000 SHRA BKN040CB=